createdAt,value
2019-03-04T00:00:44.772Z,39.9
2019-03-04T00:01:35.159Z,39.9
2019-03-04T00:02:24.367Z,39.8
2019-03-04T00:03:15.819Z,39.8
2019-03-04T00:04:05.577Z,39.7
2019-03-04T00:04:55.079Z,39.6
2019-03-04T00:05:44.309Z,39.5
2019-03-04T00:06:35.211Z,39.5
2019-03-04T00:07:24.761Z,39.4
2019-03-04T00:08:15.309Z,39.4
2019-03-04T00:09:05.648Z,39.3
2019-03-04T00:09:55.724Z,39.3
2019-03-04T00:10:45.084Z,39.3
2019-03-04T00:11:34.803Z,39.3
2019-03-04T00:12:25.439Z,39.2
2019-03-04T00:13:14.966Z,39.2
2019-03-04T00:14:05.594Z,39.2
2019-03-04T00:14:56.358Z,39.1
2019-03-04T00:15:45.573Z,39.1
2019-03-04T00:16:36.473Z,39.1
2019-03-04T00:17:25.771Z,39.1
2019-03-04T00:18:16.347Z,39.1
2019-03-04T00:19:06.370Z,39.1
2019-03-04T00:19:56.467Z,39.1
2019-03-04T00:20:46.498Z,39
2019-03-04T00:21:36.725Z,39
2019-03-04T00:22:26.891Z,39
2019-03-04T00:23:16.441Z,39
2019-03-04T00:24:06.459Z,39
2019-03-04T00:24:56.834Z,38.9
2019-03-04T00:25:47.413Z,38.9
2019-03-04T00:26:36.680Z,38.9
2019-03-04T00:27:26.715Z,38.9
2019-03-04T00:28:16.455Z,38.9
2019-03-04T00:29:06.519Z,38.9
2019-03-04T00:29:57.676Z,38.9
2019-03-04T00:30:47.170Z,38.9
2019-03-04T00:31:36.970Z,38.9
2019-03-04T00:32:27.573Z,38.9
2019-03-04T00:33:16.528Z,38.9
2019-03-04T00:34:07.415Z,38.9
2019-03-04T00:34:56.937Z,38.9
2019-03-04T00:35:47.527Z,38.9
2019-03-04T00:36:36.758Z,38.9
2019-03-04T00:37:27.389Z,38.9
2019-03-04T00:38:17.729Z,38.8
2019-03-04T00:39:07.492Z,38.8
2019-03-04T00:39:57.817Z,38.8
2019-03-04T00:40:47.898Z,38.8
2019-03-04T00:41:37.440Z,38.8
2019-03-04T00:42:28.002Z,38.8
2019-03-04T00:43:17.802Z,38.8
2019-03-04T00:44:07.834Z,38.8
2019-03-04T00:44:58.237Z,38.8
2019-03-04T00:45:48.010Z,38.8
2019-03-04T00:46:38.030Z,38.8
2019-03-04T00:47:28.372Z,38.8
2019-03-04T00:48:18.456Z,38.8
2019-03-04T00:49:08.221Z,38.8
2019-03-04T00:50:00.110Z,38.8
2019-03-04T00:50:48.311Z,38.7
2019-03-04T00:51:38.667Z,38.8
2019-03-04T00:52:28.457Z,38.7
2019-03-04T00:53:19.371Z,38.8
2019-03-04T00:54:08.655Z,38.7
2019-03-04T00:54:58.894Z,38.7
2019-03-04T00:55:49.215Z,38.7
2019-03-04T00:56:39.007Z,38.7
2019-03-04T00:57:29.071Z,38.7
2019-03-04T00:58:18.564Z,38.7
2019-03-04T00:59:09.161Z,38.7
2019-03-04T00:59:58.956Z,38.7
2019-03-04T01:00:49.030Z,38.6
2019-03-04T01:01:38.806Z,38.6
2019-03-04T01:02:28.840Z,38.6
2019-03-04T01:03:18.994Z,38.6
2019-03-04T01:04:09.526Z,38.6
2019-03-04T01:04:58.493Z,38.6
2019-03-04T01:05:49.644Z,38.6
2019-03-04T01:06:39.993Z,38.6
2019-03-04T01:07:28.937Z,38.6
2019-03-04T01:08:19.552Z,38.6
2019-03-04T01:09:09.600Z,38.6
2019-03-04T01:09:59.177Z,38.6
2019-03-04T01:10:49.767Z,38.6
2019-03-04T01:11:40.400Z,38.6
2019-03-04T01:12:30.708Z,38.6
2019-03-04T01:13:19.907Z,38.5
2019-03-04T01:14:09.695Z,38.6
2019-03-04T01:15:01.011Z,38.6
2019-03-04T01:15:49.587Z,38.5
2019-03-04T01:16:40.405Z,38.6
2019-03-04T01:17:29.915Z,38.5
2019-03-04T01:18:20.275Z,38.5
2019-03-04T01:19:10.588Z,38.5
2019-03-04T01:20:00.812Z,38.5
2019-03-04T01:20:50.967Z,38.5
2019-03-04T01:21:40.770Z,38.5
2019-03-04T01:22:31.140Z,38.4
2019-03-04T01:23:20.893Z,38.4
2019-03-04T01:24:10.430Z,38.4
2019-03-04T01:25:00.803Z,38.4
2019-03-04T01:25:51.104Z,38.4
2019-03-04T01:26:41.660Z,38.4
2019-03-04T01:27:31.170Z,38.4
2019-03-04T01:28:20.675Z,38.4
2019-03-04T01:29:11.077Z,38.4
2019-03-04T01:30:01.494Z,38.4
2019-03-04T01:30:51.408Z,38.4
2019-03-04T01:31:40.947Z,38.4
2019-03-04T01:32:31.244Z,38.4
2019-03-04T01:33:21.617Z,38.4
2019-03-04T01:34:11.668Z,38.4
2019-03-04T01:35:01.788Z,38.4
2019-03-04T01:35:52.296Z,38.4
2019-03-04T01:36:41.555Z,38.4
2019-03-04T01:37:31.321Z,38.4
2019-03-04T01:38:21.669Z,38.4
2019-03-04T01:39:12.268Z,38.4
2019-03-04T01:40:01.483Z,38.3
2019-03-04T01:40:52.697Z,38.3
2019-03-04T01:41:42.211Z,38.3
2019-03-04T01:42:32.241Z,38.3
2019-03-04T01:43:22.043Z,38.3
2019-03-04T01:44:12.379Z,38.3
2019-03-04T01:45:01.777Z,38.3
2019-03-04T01:45:52.738Z,38.3
2019-03-04T01:46:42.806Z,38.3
2019-03-04T01:47:32.845Z,38.3
2019-03-04T01:48:22.718Z,38.3
2019-03-04T01:49:12.131Z,38.3
2019-03-04T01:50:02.566Z,38.3
2019-03-04T01:50:52.255Z,38.3
2019-03-04T01:51:43.155Z,38.3
2019-03-04T01:52:33.003Z,38.3
2019-03-04T01:53:23.328Z,38.3
2019-03-04T01:54:12.503Z,38.2
2019-03-04T01:55:02.943Z,38.2
2019-03-04T01:55:53.421Z,38.2
2019-03-04T01:56:43.543Z,38.2
2019-03-04T01:57:33.003Z,38.2
2019-03-04T01:58:23.658Z,38.2
2019-03-04T01:59:13.101Z,38.2
2019-03-04T02:00:02.449Z,38.2
2019-03-04T02:00:53.232Z,38.1
2019-03-04T02:01:43.367Z,38.1
2019-03-04T02:02:33.958Z,38.2
2019-03-04T02:03:23.477Z,38.1
2019-03-04T02:04:12.642Z,38.1
2019-03-04T02:05:04.390Z,38.1
2019-03-04T02:05:53.320Z,38.1
2019-03-04T02:06:43.660Z,38.1
2019-03-04T02:07:33.988Z,38.1
2019-03-04T02:08:24.070Z,38.1
2019-03-04T02:09:13.857Z,38.1
2019-03-04T02:10:03.599Z,38.1
2019-03-04T02:10:54.220Z,38.1
2019-03-04T02:11:44.262Z,38.1
2019-03-04T02:12:34.896Z,38.1
2019-03-04T02:13:24.407Z,38.1
2019-03-04T02:14:14.519Z,38.1
2019-03-04T02:15:05.187Z,38.1
2019-03-04T02:15:54.109Z,38.1
2019-03-04T02:16:44.631Z,38.1
2019-03-04T02:17:33.603Z,38
2019-03-04T02:18:24.767Z,38.1
2019-03-04T02:19:14.842Z,38.1
2019-03-04T02:20:04.511Z,38
2019-03-04T02:20:55.219Z,38.1
2019-03-04T02:21:44.689Z,38
2019-03-04T02:22:35.041Z,38
2019-03-04T02:23:24.634Z,38
2019-03-04T02:24:14.094Z,38
2019-03-04T02:25:05.283Z,38
2019-03-04T02:25:54.536Z,38
2019-03-04T02:26:44.839Z,38
2019-03-04T02:27:34.682Z,38
2019-03-04T02:28:24.343Z,38
2019-03-04T02:29:15.249Z,37.9
2019-03-04T02:30:05.539Z,37.9
2019-03-04T02:30:56.015Z,37.9
2019-03-04T02:31:46.045Z,37.9
2019-03-04T02:32:35.529Z,37.9
2019-03-04T02:33:25.132Z,37.9
2019-03-04T02:34:16.340Z,37.9
2019-03-04T02:35:05.909Z,37.9
2019-03-04T02:35:54.954Z,37.9
2019-03-04T02:36:46.439Z,37.9
2019-03-04T02:37:36.228Z,37.9
2019-03-04T02:38:26.213Z,37.9
2019-03-04T02:39:15.765Z,37.9
2019-03-04T02:40:06.084Z,37.9
2019-03-04T02:40:56.128Z,37.9
2019-03-04T02:41:47.025Z,37.9
2019-03-04T02:42:37.044Z,37.9
2019-03-04T02:43:26.857Z,37.9
2019-03-04T02:44:16.643Z,37.9
2019-03-04T02:45:06.720Z,37.8
2019-03-04T02:45:56.519Z,37.9
2019-03-04T02:46:47.435Z,37.8
2019-03-04T02:47:37.165Z,37.8
2019-03-04T02:48:27.308Z,37.8
2019-03-04T02:49:17.318Z,37.8
2019-03-04T02:50:07.027Z,37.8
2019-03-04T02:50:56.918Z,37.8
2019-03-04T02:51:46.883Z,37.8
2019-03-04T02:52:37.038Z,37.8
2019-03-04T02:53:27.352Z,37.8
2019-03-04T02:54:16.854Z,37.8
2019-03-04T02:55:07.138Z,37.8
2019-03-04T02:55:57.167Z,37.8
2019-03-04T02:56:48.085Z,37.8
2019-03-04T02:57:37.555Z,37.8
2019-03-04T02:58:27.478Z,37.8
2019-03-04T02:59:17.726Z,37.8
2019-03-04T03:00:07.051Z,37.8
2019-03-04T03:00:58.377Z,37.8
2019-03-04T03:01:47.617Z,37.7
2019-03-04T03:02:37.075Z,37.7
2019-03-04T03:03:27.734Z,37.7
2019-03-04T03:04:18.064Z,37.7
2019-03-04T06:05:49.368Z,36.5
2019-03-04T06:06:40.256Z,36.6
2019-03-04T06:07:30.379Z,36.5
2019-03-04T06:08:20.104Z,36.5
2019-03-04T06:09:09.327Z,36.5
2019-03-04T06:09:59.659Z,36.5
2019-03-04T06:10:49.489Z,36.5
2019-03-04T06:11:39.760Z,36.5
2019-03-04T06:12:29.532Z,36.5
2019-03-04T06:13:19.642Z,36.5
2019-03-04T06:14:10.509Z,36.4
2019-03-04T06:15:00.842Z,36.5
2019-03-04T06:15:50.388Z,36.5
2019-03-04T06:16:50.307Z,36.4
2019-03-04T06:17:29.910Z,36.4
2019-03-04T06:18:20.551Z,36.4
2019-03-04T06:19:10.837Z,36.4
2019-03-04T06:20:00.291Z,36.4
2019-03-04T06:20:50.700Z,36.4
2019-03-04T06:21:40.774Z,36.4
2019-03-04T06:22:30.789Z,36.4
2019-03-04T06:23:21.126Z,36.4
2019-03-04T06:24:10.959Z,36.4
2019-03-04T06:25:00.789Z,36.4
2019-03-04T06:25:51.826Z,36.4
2019-03-04T06:26:41.416Z,36.4
2019-03-04T06:27:31.176Z,36.4
2019-03-04T06:28:20.676Z,36.4
2019-03-04T06:29:11.279Z,36.4
2019-03-04T06:30:00.513Z,36.4
2019-03-04T06:30:53.661Z,36.4
2019-03-04T06:31:41.239Z,36.4
2019-03-04T06:32:32.075Z,36.4
2019-03-04T06:33:21.870Z,36.4
2019-03-04T06:34:10.857Z,36.4
2019-03-04T06:35:01.680Z,36.3
2019-03-04T06:35:51.472Z,36.3
2019-03-04T06:36:41.326Z,36.3
2019-03-04T06:37:31.384Z,36.3
2019-03-04T06:38:21.727Z,36.3
2019-03-04T06:39:11.495Z,36.3
2019-03-04T06:40:01.564Z,36.3
2019-03-04T06:40:51.650Z,36.3
2019-03-04T06:41:41.947Z,36.3
2019-03-04T06:42:31.512Z,36.3
2019-03-04T06:43:21.490Z,36.3
2019-03-04T06:44:12.587Z,36.3
2019-03-04T06:45:02.445Z,36.3
2019-03-04T06:45:52.177Z,36.3
2019-03-04T06:46:42.850Z,36.3
2019-03-04T06:47:32.825Z,36.3
2019-03-04T06:48:22.065Z,36.3
2019-03-04T06:49:12.715Z,36.3
2019-03-04T06:50:02.992Z,36.3
2019-03-04T06:50:53.443Z,36.3
2019-03-04T06:51:42.565Z,36.3
2019-03-04T06:52:32.942Z,36.3
2019-03-04T06:53:23.299Z,36.3
2019-03-04T06:54:12.739Z,36.3
2019-03-04T06:55:02.949Z,36.3
2019-03-04T06:55:52.854Z,36.3
2019-03-04T06:56:42.664Z,36.3
2019-03-04T06:57:35.059Z,32.9
2019-03-04T06:58:23.612Z,20.9
2019-03-04T06:59:13.084Z,35.9
2019-03-04T07:00:03.141Z,46
2019-03-04T07:00:53.852Z,49.4
2019-03-04T07:01:43.314Z,49.9
2019-03-04T07:02:34.142Z,49.8
2019-03-04T07:03:23.123Z,49.4
2019-03-04T07:05:49.601Z,47.9
2019-03-04T07:06:39.421Z,47.4
2019-03-04T07:07:29.446Z,46.9
2019-03-04T07:08:19.776Z,46.4
2019-03-04T07:09:09.868Z,46
2019-03-04T07:09:59.894Z,45.6
2019-03-04T07:10:49.126Z,45.3
2019-03-04T07:11:40.356Z,44.9
2019-03-04T07:12:30.329Z,44.6
2019-03-04T07:13:19.611Z,44.3
2019-03-04T07:14:10.200Z,43.9
2019-03-04T07:14:59.936Z,43.6
2019-03-04T07:15:49.758Z,43.4
2019-03-04T07:16:40.378Z,43.1
2019-03-04T07:17:30.412Z,42.9
2019-03-04T07:18:20.248Z,42.6
2019-03-04T07:19:10.013Z,42.1
2019-03-04T07:20:01.306Z,39.9
2019-03-04T07:20:50.671Z,50.6
2019-03-04T07:21:40.503Z,55.9
2019-03-04T07:22:30.765Z,56.6
2019-03-04T07:23:20.828Z,53.9
2019-03-04T07:24:11.254Z,51.4
2019-03-04T07:25:00.116Z,50.8
2019-03-04T07:25:50.705Z,51.2
2019-03-04T07:26:40.554Z,52
2019-03-04T07:27:30.622Z,53.1
2019-03-04T07:28:21.725Z,54.1
2019-03-04T07:29:11.237Z,54.9
2019-03-04T07:30:00.998Z,55.1
2019-03-04T07:30:50.854Z,55.1
2019-03-04T07:31:41.387Z,55.1
2019-03-04T07:32:31.459Z,55.1
2019-03-04T07:33:21.927Z,55.3
2019-03-04T07:34:11.014Z,55.5
2019-03-04T07:35:01.320Z,55.8
2019-03-04T07:35:51.957Z,56.1
2019-03-04T07:36:41.757Z,56.3
2019-03-04T07:37:32.077Z,56.4
2019-03-04T07:38:21.830Z,56.6
2019-03-04T07:39:11.925Z,56.7
2019-03-04T07:40:02.284Z,56.9
2019-03-04T07:40:52.024Z,57
2019-03-04T07:41:41.837Z,57.2
2019-03-04T07:42:34.241Z,57.3
2019-03-04T07:43:21.926Z,57.5
2019-03-04T07:44:11.741Z,57.6
2019-03-04T07:45:02.784Z,57.8
2019-03-04T07:45:52.953Z,57.9
2019-03-04T07:46:42.703Z,58.1
2019-03-04T07:47:32.218Z,58.2
2019-03-04T07:48:21.744Z,58.3
2019-03-04T07:49:12.615Z,58.4
2019-03-04T07:50:02.035Z,58.6
2019-03-04T07:50:51.906Z,58.8
2019-03-04T07:51:42.798Z,58.9
2019-03-04T07:52:32.349Z,59
2019-03-04T07:53:24.653Z,59.2
2019-03-04T07:54:12.410Z,59.3
2019-03-04T07:55:02.481Z,59.4
2019-03-04T07:55:53.636Z,59.6
2019-03-04T07:56:43.710Z,59.7
2019-03-04T07:57:33.493Z,59.8
2019-03-04T07:58:25.628Z,60
2019-03-04T07:59:13.651Z,60.1
2019-03-04T08:00:03.881Z,60.3
2019-03-04T08:00:53.038Z,60.4
2019-03-04T08:01:43.218Z,60.4
2019-03-04T08:02:33.278Z,60.6
2019-03-04T08:03:23.620Z,60.7
2019-03-04T08:04:12.843Z,60.8
2019-03-04T08:05:03.221Z,60.8
2019-03-04T08:05:52.846Z,60.9
2019-03-04T08:06:43.389Z,61
2019-03-04T08:07:33.646Z,61.1
2019-03-04T08:08:24.231Z,61.2
2019-03-04T08:09:14.012Z,61.3
2019-03-04T08:10:03.309Z,61.4
2019-03-04T08:10:53.862Z,61.5
2019-03-04T08:11:43.922Z,61.6
2019-03-04T08:12:34.809Z,61.7
2019-03-04T08:13:24.120Z,61.8
2019-03-04T08:14:14.355Z,61.9
2019-03-04T08:15:04.830Z,62
2019-03-04T08:15:54.285Z,62.1
2019-03-04T08:16:44.855Z,62.2
2019-03-04T08:17:34.660Z,62.3
2019-03-04T08:18:23.642Z,62.4
2019-03-04T08:19:14.997Z,62.6
2019-03-04T08:20:04.542Z,62.7
2019-03-04T08:20:54.898Z,62.8
2019-03-04T08:21:44.687Z,62.9
2019-03-04T08:22:35.008Z,62.9
2019-03-04T08:23:24.750Z,63.1
2019-03-04T08:24:14.544Z,63.1
2019-03-04T08:25:05.419Z,63.2
2019-03-04T08:25:55.488Z,63.3
2019-03-04T08:26:44.449Z,63.4
2019-03-04T08:27:35.287Z,63.4
2019-03-04T08:28:25.467Z,63.5
2019-03-04T08:29:15.704Z,63.6
2019-03-04T08:30:05.533Z,63.8
2019-03-04T08:30:55.854Z,63.8
2019-03-04T08:31:45.609Z,63.9
2019-03-04T08:32:35.999Z,63.9
2019-03-04T08:33:25.922Z,64.1
2019-03-04T08:34:16.091Z,64.1
2019-03-04T08:35:05.553Z,64.2
2019-03-04T08:35:55.921Z,64.3
2019-03-04T08:36:45.679Z,64.4
2019-03-04T08:37:36.558Z,64.5
2019-03-04T08:38:25.311Z,64.6
2019-03-04T08:39:15.870Z,64.7
2019-03-04T08:40:05.718Z,64.8
2019-03-04T08:40:56.507Z,64.9
2019-03-04T08:41:46.316Z,65
2019-03-04T08:42:36.633Z,65.1
2019-03-04T08:43:25.853Z,65.2
2019-03-04T08:44:16.746Z,65.3
2019-03-04T08:45:06.566Z,65.4
2019-03-04T08:45:56.581Z,65.5
2019-03-04T08:46:47.224Z,65.6
2019-03-04T08:47:37.006Z,65.7
2019-03-04T08:48:26.820Z,65.8
2019-03-04T08:49:16.338Z,65.9
2019-03-04T08:50:06.636Z,66
2019-03-04T08:50:57.014Z,66.1
2019-03-04T08:51:47.299Z,66.2
2019-03-04T08:52:36.266Z,66.3
2019-03-04T08:53:27.103Z,66.4
2019-03-04T08:54:17.268Z,66.4
2019-03-04T08:55:07.015Z,66.5
2019-03-04T08:55:57.655Z,66.6
2019-03-04T08:56:47.360Z,66.6
2019-03-04T08:57:36.373Z,66.8
2019-03-04T08:58:26.405Z,66.8
2019-03-04T08:59:17.280Z,66.9
2019-03-04T09:00:06.585Z,67
2019-03-04T09:00:57.912Z,67.1
2019-03-04T09:01:48.000Z,67.2
2019-03-04T09:02:36.990Z,67.3
2019-03-04T09:03:27.628Z,67.3
2019-03-04T09:04:17.117Z,67.4
2019-03-04T09:05:07.753Z,67.6
2019-03-04T09:05:56.957Z,67.6
2019-03-04T09:06:47.545Z,67.8
2019-03-04T09:07:38.414Z,67.8
2019-03-04T09:08:28.272Z,67.9
2019-03-04T09:09:18.504Z,68
2019-03-04T09:10:08.327Z,68.1
2019-03-04T09:10:57.601Z,68.1
2019-03-04T09:11:48.477Z,68.2
2019-03-04T09:12:39.772Z,68.3
2019-03-04T09:13:28.592Z,68.3
2019-03-04T09:14:17.818Z,68.4
2019-03-04T09:15:08.182Z,68.5
2019-03-04T09:15:57.971Z,68.6
2019-03-04T09:16:48.270Z,68.7
2019-03-04T09:17:37.760Z,68.8
2019-03-04T09:18:28.134Z,68.8
2019-03-04T09:19:18.754Z,68.9
2019-03-04T09:20:08.782Z,68.9
2019-03-04T09:20:58.604Z,69
2019-03-04T09:21:48.886Z,69.1
2019-03-04T09:22:38.979Z,69.1
2019-03-04T09:23:29.008Z,69.2
2019-03-04T09:24:19.116Z,69.3
2019-03-04T09:25:08.608Z,69.4
2019-03-04T09:25:58.921Z,69.5
2019-03-04T09:26:48.983Z,69.6
2019-03-04T09:27:39.513Z,69.6
2019-03-04T09:28:28.837Z,69.7
2019-03-04T09:29:18.862Z,69.8
2019-03-04T09:30:09.268Z,69.9
2019-03-04T09:30:58.989Z,69.9
2019-03-04T09:31:49.511Z,70.1
2019-03-04T09:32:39.346Z,70.1
2019-03-04T09:33:29.671Z,70.2
2019-03-04T09:34:19.436Z,70.3
2019-03-04T09:35:09.781Z,70.4
2019-03-04T09:36:00.108Z,70.4
2019-03-04T09:36:50.186Z,70.5
2019-03-04T09:37:39.938Z,70.6
2019-03-04T09:38:29.976Z,70.8
2019-03-04T09:39:20.653Z,70.8
2019-03-04T09:40:10.441Z,70.9
2019-03-04T09:41:00.785Z,71.1
2019-03-04T09:41:52.817Z,71.1
2019-03-04T09:42:41.258Z,71.3
2019-03-04T09:43:30.633Z,71.3
2019-03-04T09:44:20.393Z,71.4
2019-03-04T09:45:10.805Z,71.4
2019-03-04T09:46:00.305Z,71.6
2019-03-04T09:46:50.620Z,71.6
2019-03-04T09:47:40.365Z,71.6
2019-03-04T09:48:31.235Z,71.7
2019-03-04T09:49:21.046Z,71.8
2019-03-04T09:50:11.092Z,71.9
2019-03-04T09:51:00.860Z,71.9
2019-03-04T09:51:51.797Z,72.1
2019-03-04T09:52:40.727Z,72.2
2019-03-04T09:53:44.152Z,72.3
2019-03-04T09:54:21.090Z,72.4
2019-03-04T09:55:11.753Z,72.4
2019-03-04T09:56:01.000Z,72.5
2019-03-04T09:56:51.714Z,72.5
2019-03-04T09:57:41.631Z,72.6
2019-03-04T09:58:31.451Z,72.6
2019-03-04T09:59:21.724Z,72.7
2019-03-04T10:00:12.337Z,72.8
2019-03-04T10:01:01.825Z,72.9
2019-03-04T10:01:52.182Z,72.9
2019-03-04T10:02:42.276Z,73
2019-03-04T10:03:32.279Z,73.1
2019-03-04T10:04:21.792Z,73.1
2019-03-04T10:06:49.766Z,73.2
2019-03-04T10:07:39.551Z,73.2
2019-03-04T10:08:38.601Z,73.2
2019-03-04T10:09:19.622Z,73.2
2019-03-04T10:10:09.768Z,73.3
2019-03-04T10:10:58.924Z,73.3
2019-03-04T10:11:48.997Z,73.4
2019-03-04T10:12:40.428Z,73.4
2019-03-04T10:13:30.189Z,73.4
2019-03-04T10:14:19.475Z,73.5
2019-03-04T10:15:13.651Z,73.6
2019-03-04T10:15:59.545Z,73.6
2019-03-04T10:16:50.741Z,73.6
2019-03-04T10:17:39.386Z,73.6
2019-03-04T10:18:30.278Z,73.6
2019-03-04T10:19:19.763Z,73.7
2019-03-04T10:20:09.838Z,73.8
2019-03-04T10:21:00.203Z,73.8
2019-03-04T10:21:52.388Z,73.8
2019-03-04T10:22:40.336Z,73.9
2019-03-04T10:23:30.061Z,73.9
2019-03-04T10:24:20.133Z,73.9
2019-03-04T10:25:10.453Z,74
2019-03-04T10:26:00.223Z,74
2019-03-04T10:26:50.856Z,74.1
2019-03-04T10:27:40.063Z,74.2
2019-03-04T10:28:30.703Z,74.2
2019-03-04T10:29:20.738Z,74.2
2019-03-04T10:30:11.102Z,74.1
2019-03-04T10:31:01.170Z,74.1
2019-03-04T10:31:51.478Z,74.1
2019-03-04T10:32:40.698Z,74
2019-03-04T10:33:31.635Z,74
2019-03-04T10:34:21.374Z,74
2019-03-04T10:35:11.720Z,74
2019-03-04T10:36:00.670Z,74
2019-03-04T10:36:51.537Z,73.9
2019-03-04T10:37:41.872Z,73.9
2019-03-04T10:38:30.822Z,73.9
2019-03-04T10:39:27.657Z,73.9
2019-03-04T10:40:10.964Z,73.9
2019-03-04T10:41:04.114Z,74
2019-03-04T10:41:51.645Z,74.1
2019-03-04T10:42:41.975Z,74.1
2019-03-04T10:43:31.468Z,74.2
2019-03-04T10:44:22.632Z,74.3
2019-03-04T10:45:11.853Z,74.3
2019-03-04T10:46:01.917Z,74.3
2019-03-04T10:46:52.264Z,74.4
2019-03-04T10:47:42.839Z,74.4
2019-03-04T10:48:32.750Z,74.5
2019-03-04T10:49:22.689Z,74.6
2019-03-04T10:50:12.202Z,74.6
2019-03-04T10:51:02.256Z,74.6
2019-03-04T10:51:52.112Z,74.6
2019-03-04T10:52:43.219Z,74.6
2019-03-04T10:53:32.784Z,74.7
2019-03-04T10:54:23.321Z,74.8
2019-03-04T10:55:12.836Z,75
2019-03-04T10:56:03.176Z,75.1
2019-03-04T10:56:51.916Z,75.2
2019-03-04T10:57:43.284Z,75.3
2019-03-04T10:58:32.242Z,75.4
2019-03-04T10:59:23.373Z,75.4
2019-03-04T11:00:13.526Z,75.4
2019-03-04T11:01:03.573Z,75.4
2019-03-04T11:01:55.489Z,75.4
2019-03-04T11:02:42.779Z,75.4
2019-03-04T11:03:33.736Z,75.4
2019-03-04T11:04:22.701Z,75.4
2019-03-04T11:05:13.023Z,75.4
2019-03-04T11:06:03.313Z,75.3
2019-03-04T11:06:55.938Z,75.3
2019-03-04T11:07:43.240Z,75.3
2019-03-04T11:08:33.808Z,75.4
2019-03-04T11:09:23.884Z,75.4
2019-03-04T11:10:13.111Z,75.4
2019-03-04T11:11:03.958Z,75.4
2019-03-04T11:11:54.523Z,75.4
2019-03-04T11:12:44.334Z,75.4
2019-03-04T11:13:34.116Z,75.4
2019-03-04T11:14:23.621Z,75.4
2019-03-04T11:15:13.931Z,75.4
2019-03-04T11:16:04.020Z,75.4
2019-03-04T11:16:54.916Z,75.4
2019-03-04T11:17:44.382Z,75.4
2019-03-04T11:18:34.200Z,75.3
2019-03-04T11:19:24.883Z,75.4
2019-03-04T11:20:13.743Z,75.4
2019-03-04T11:21:04.643Z,75.4
2019-03-04T11:21:54.487Z,75.4
2019-03-04T11:22:44.468Z,75.4
2019-03-04T11:23:35.377Z,75.4
2019-03-04T11:24:25.446Z,75.4
2019-03-04T11:25:14.675Z,75.4
2019-03-04T11:26:05.017Z,75.4
2019-03-04T11:26:55.602Z,75.4
2019-03-04T11:27:44.822Z,75.4
2019-03-04T11:28:35.447Z,75.4
2019-03-04T11:29:25.559Z,75.5
2019-03-04T11:30:15.833Z,75.5
2019-03-04T11:31:05.064Z,75.5
2019-03-04T11:31:55.125Z,75.6
2019-03-04T11:32:45.207Z,75.6
2019-03-04T11:33:35.764Z,75.6
2019-03-04T11:34:25.337Z,75.5
2019-03-04T11:35:15.069Z,75.5
2019-03-04T11:36:06.338Z,75.4
2019-03-04T11:36:55.187Z,75.5
2019-03-04T11:37:46.089Z,75.5
2019-03-04T11:38:35.567Z,75.5
2019-03-04T11:39:26.256Z,75.5
2019-03-04T11:40:16.226Z,75.6
2019-03-04T11:41:06.313Z,75.6
2019-03-04T11:41:55.809Z,75.5
2019-03-04T11:42:46.700Z,75.5
2019-03-04T11:43:35.661Z,75.4
2019-03-04T11:44:26.556Z,75.4
2019-03-04T11:45:16.399Z,75.3
2019-03-04T11:46:06.384Z,75.3
2019-03-04T11:46:56.466Z,75.3
2019-03-04T11:47:46.758Z,75.4
2019-03-04T11:48:36.624Z,75.4
2019-03-04T11:49:26.106Z,75.4
2019-03-04T11:50:16.206Z,75.4
2019-03-04T11:51:06.761Z,75.5
2019-03-04T11:51:56.543Z,75.6
2019-03-04T11:52:47.130Z,75.6
2019-03-04T11:53:36.898Z,75.6
2019-03-04T11:54:26.753Z,75.6
2019-03-04T11:55:17.106Z,75.6
2019-03-04T11:56:07.381Z,75.6
2019-03-04T11:56:57.150Z,75.5
2019-03-04T11:57:47.481Z,75.5
2019-03-04T11:58:37.540Z,75.5
2019-03-04T11:59:27.391Z,75.4
2019-03-04T12:00:17.115Z,74.4
2019-03-04T12:01:07.253Z,73.2
2019-03-04T12:01:57.541Z,72.1
2019-03-04T12:02:47.003Z,71.9
2019-03-04T12:03:37.892Z,73.5
2019-03-04T12:04:27.972Z,76.8
2019-03-04T12:06:49.168Z,77.3
2019-03-04T12:07:38.605Z,75.8
2019-03-04T12:08:29.477Z,74.6
2019-03-04T12:09:19.553Z,74
2019-03-04T12:10:09.922Z,74.5
2019-03-04T12:10:59.627Z,77.1
2019-03-04T12:11:49.407Z,78.4
2019-03-04T12:12:39.767Z,78
2019-03-04T12:13:29.842Z,76.9
2019-03-04T12:14:20.127Z,75.7
2019-03-04T12:15:09.433Z,74.4
2019-03-04T12:16:00.005Z,74.3
2019-03-04T12:16:49.808Z,74.9
2019-03-04T12:17:39.621Z,77.2
2019-03-04T12:18:29.974Z,77.8
2019-03-04T12:19:20.004Z,77.1
2019-03-04T12:20:10.362Z,75.9
2019-03-04T12:21:00.601Z,74.7
2019-03-04T12:21:50.684Z,73.5
2019-03-04T12:22:40.157Z,73.8
2019-03-04T12:23:30.822Z,75.1
2019-03-04T12:24:20.924Z,77.1
2019-03-04T12:25:10.684Z,77.3
2019-03-04T12:25:59.902Z,76.4
2019-03-04T12:26:51.029Z,75.3
2019-03-04T12:27:40.351Z,74
2019-03-04T12:28:30.869Z,72.9
2019-03-04T12:29:21.216Z,73.4
2019-03-04T12:30:10.216Z,75.2
2019-03-04T12:31:01.606Z,76.5
2019-03-04T12:31:50.633Z,76.4
2019-03-04T12:32:41.458Z,75.4
2019-03-04T12:33:31.753Z,74.1
2019-03-04T12:34:31.016Z,73
2019-03-04T12:35:10.786Z,72.4
2019-03-04T12:36:01.406Z,72.8
2019-03-04T12:36:51.469Z,75
2019-03-04T12:37:42.078Z,76.1
2019-03-04T12:38:32.196Z,75.9
2019-03-04T12:39:21.625Z,74.9
2019-03-04T12:40:12.113Z,73.7
2019-03-04T12:41:02.303Z,72.5
2019-03-04T12:41:54.567Z,71.9
2019-03-04T12:42:42.458Z,72.6
2019-03-04T12:43:31.938Z,74.6
2019-03-04T12:44:21.183Z,75.4
2019-03-04T12:45:12.299Z,75.1
2019-03-04T12:46:01.259Z,74.1
2019-03-04T12:46:52.206Z,72.9
2019-03-04T12:47:42.505Z,71.8
2019-03-04T12:48:32.334Z,71.3
2019-03-04T12:49:22.935Z,71.9
2019-03-04T12:50:11.592Z,74.1
2019-03-04T12:51:02.523Z,74.9
2019-03-04T12:51:51.652Z,74.8
2019-03-04T12:52:42.339Z,74.1
2019-03-04T12:53:43.225Z,72.9
2019-03-04T12:54:22.392Z,71.4
2019-03-04T12:55:12.547Z,71.1
2019-03-04T12:56:02.518Z,71.4
2019-03-04T12:56:52.634Z,73.3
2019-03-04T12:57:42.904Z,74.2
2019-03-04T12:58:32.704Z,74.3
2019-03-04T12:59:21.705Z,73.8
2019-03-04T13:00:11.874Z,73.1
2019-03-04T13:01:02.887Z,72.6
2019-03-04T13:01:53.187Z,72.4
2019-03-04T13:02:43.264Z,72.4
2019-03-04T13:03:33.053Z,72.6
2019-03-04T13:04:23.377Z,72.6
2019-03-04T13:05:12.682Z,72.7
2019-03-04T13:06:02.957Z,72.6
2019-03-04T13:06:53.562Z,72.5
2019-03-04T13:07:44.184Z,72.3
2019-03-04T13:08:34.222Z,72.2
2019-03-04T13:09:22.947Z,72.1
2019-03-04T13:10:13.554Z,72.1
2019-03-04T13:11:04.131Z,72.1
2019-03-04T13:11:53.659Z,72.1
2019-03-04T13:12:44.294Z,72
2019-03-04T13:13:33.549Z,71.9
2019-03-04T13:14:24.109Z,71.8
2019-03-04T13:15:13.896Z,71.8
2019-03-04T13:16:03.451Z,71.7
2019-03-04T13:16:54.852Z,71.7
2019-03-04T13:17:44.074Z,71.6
2019-03-04T13:18:35.006Z,71.6
2019-03-04T13:19:24.256Z,71.6
2019-03-04T13:20:14.221Z,71.6
2019-03-04T13:21:04.855Z,71.5
2019-03-04T13:21:53.821Z,71.4
2019-03-04T13:22:45.011Z,71.3
2019-03-04T13:23:34.460Z,71.2
2019-03-04T13:24:25.188Z,71.1
2019-03-04T13:25:14.600Z,70.9
2019-03-04T13:26:04.923Z,70.9
2019-03-04T13:26:54.961Z,70.8
2019-03-04T13:27:43.965Z,70.6
2019-03-04T13:28:34.805Z,70.6
2019-03-04T13:29:25.433Z,70.4
2019-03-04T13:30:14.956Z,70.3
2019-03-04T13:31:20.208Z,70.3
2019-03-04T13:31:55.413Z,70.1
2019-03-04T13:32:45.681Z,70
2019-03-04T13:33:36.043Z,69.9
2019-03-04T13:34:24.546Z,69.8
2019-03-04T13:35:26.607Z,69.7
2019-03-04T13:36:04.783Z,69.6
2019-03-04T13:36:55.820Z,69.5
2019-03-04T13:37:45.575Z,69.4
2019-03-04T13:38:35.853Z,69.3
2019-03-04T13:39:25.678Z,69.3
2019-03-04T13:40:14.862Z,69.2
2019-03-04T13:41:05.492Z,69.1
2019-03-04T13:41:55.592Z,69
2019-03-04T13:42:45.627Z,68.9
2019-03-04T13:43:35.408Z,68.8
2019-03-04T13:44:26.338Z,68.7
2019-03-04T13:45:15.349Z,68.6
2019-03-04T13:46:06.139Z,68.4
2019-03-04T13:46:55.381Z,68.3
2019-03-04T13:47:46.797Z,68.3
2019-03-04T13:48:36.581Z,68.1
2019-03-04T13:49:25.530Z,68.1
2019-03-04T13:50:16.610Z,67.9
2019-03-04T13:51:07.247Z,67.8
2019-03-04T13:51:55.989Z,67.7
2019-03-04T13:52:47.335Z,67.6
2019-03-04T13:53:36.884Z,67.4
2019-03-04T13:54:26.919Z,67.3
2019-03-04T13:55:16.985Z,67.2
2019-03-04T13:56:06.014Z,67.1
2019-03-04T13:56:56.294Z,66.9
2019-03-04T13:57:46.598Z,66.9
2019-03-04T13:58:37.210Z,66.8
2019-03-04T13:59:27.876Z,66.6
2019-03-04T14:00:16.881Z,66.4
2019-03-04T14:01:07.367Z,66.3
2019-03-04T14:01:57.762Z,66.3
2019-03-04T14:02:47.520Z,66.1
2019-03-04T14:03:36.463Z,66.1
2019-03-04T14:04:27.961Z,65.9
2019-03-04T14:05:18.028Z,65.8
2019-03-04T14:08:05.796Z,65.4
2019-03-04T16:07:49.164Z,46.9
2019-03-04T16:08:39.212Z,46.9
2019-03-04T16:09:29.122Z,46.9
2019-03-04T16:10:18.044Z,46.9
2019-03-04T16:11:08.826Z,46.9
2019-03-04T16:11:58.882Z,46.8
2019-03-04T16:12:49.479Z,46.8
2019-03-04T16:13:38.814Z,46.8
2019-03-04T16:14:29.934Z,46.7
2019-03-04T16:15:19.189Z,46.7